Appleton, Idaho
Current Conditions -  °F | °C
As of 11:53 PM on Friday 28 Nov 2014 (Local Time) from KJER Reporting Station
Overcast Overcast  
Wind Chill: 10°   Ceiling: 10000
Heat Index: 10°   Visibility: 9mi
Dew Point: -6°   Wind: 8mph
Humidity: 32%   Direction: 210°SSW
Pressure: 29.68"   Gusts: NA
Location:  42.7238°N, 114.338°W
Report Text: KJER 290653Z AUTO 21007KT 9SM OVC100 10/M06 A2968 RMK AO2 SLP035 T01001061 401440056
Loading
Personal Weather Stations






























Interactive Weather Map New forecast layout! Learn more

10-Day Weather Forecast

Advertisements
Track Severe Weather on mobile